Time;durP1;ratioP1;P1;durP2;ratioP2;P2;SDS_P1;SDS_P2;PMS_P1;PMS_P2;Temp;Humidity;BMP_temperature;BMP_pressure;BME280_temperature;BME280_humidity;BME280_pressure;Samples;Min_cycle;Max_cycle;Signal;HPM_P1;HPM_P2
2022/01/30 00:01:41;;;;;;;45.57;25.63;;;;;;;;;;4998049;28;20140;-60
2022/01/30 00:04:07;;;;;;;43.93;24.23;;;;;;;;;;5000873;28;20121;-60
2022/01/30 00:06:33;;;;;;;42.10;24.77;;;;;;;;;;4997432;28;20594;-59
2022/01/30 00:08:59;;;;;;;41.90;24.13;;;;;;;;;;4996389;28;20029;-60
2022/01/30 00:11:30;;;;;;;42.27;25.73;;;;;;;;;;4999784;28;20056;-59
2022/01/30 00:13:58;;;;;;;45.63;26.03;;;;;;;;;;5005482;28;20128;-60
2022/01/30 00:16:29;;;;;;;43.53;24.80;;;;;;;;;;4994690;28;20061;-60
2022/01/30 00:19:04;;;;;;;42.53;24.73;;;;;;;;;;5000296;28;20600;-57
2022/01/30 00:21:38;;;;;;;41.17;22.80;;;;;;;;;;5001751;28;20038;-59
2022/01/30 00:24:13;;;;;;;40.27;23.23;;;;;;;;;;5002671;28;20376;-60
2022/01/30 00:26:40;;;;;;;41.38;22.05;;;;;;;;;;4995896;28;20278;-60
2022/01/30 00:29:07;;;;;;;38.97;22.57;;;;;;;;;;5004081;28;20376;-60
2022/01/30 00:31:34;;;;;;;41.27;22.33;;;;;;;;;;5006256;28;20125;-60
2022/01/30 00:34:01;;;;;;;42.43;23.90;;;;;;;;;;5008399;28;20029;-60
2022/01/30 00:36:29;;;;;;;41.30;21.67;;;;;;;;;;5002246;28;20041;-60
2022/01/30 00:38:55;;;;;;;43.77;23.43;;;;;;;;;;5006099;28;20121;-57
2022/01/30 00:41:21;;;;;;;36.23;22.20;;;;;;;;;;5002931;28;20121;-60
2022/01/30 00:43:47;;;;;;;44.27;23.73;;;;;;;;;;5006494;28;20372;-60
2022/01/30 00:46:13;;;;;;;37.53;21.20;;;;;;;;;;5004728;28;20034;-60
2022/01/30 00:48:39;;;;;;;41.10;23.20;;;;;;;;;;5009402;28;20442;-60
2022/01/30 00:54:09;;;;;;;37.83;22.47;;;;;;;;;;4993937;28;20044;-60
2022/01/30 00:56:35;;;;;;;37.77;22.00;;;;;;;;;;5000976;28;20112;-59
2022/01/30 00:59:01;;;;;;;41.67;21.87;;;;;;;;;;5003739;28;20381;-59
2022/01/30 01:01:28;;;;;;;40.27;22.23;;;;;;;;;;4998991;28;20073;-59
2022/01/30 01:03:53;;;;;;;38.43;21.77;;;;;;;;;;5003057;28;20033;-60
2022/01/30 01:06:19;;;;;;;40.63;22.17;;;;;;;;;;5024806;28;20056;-60
2022/01/30 01:08:52;;;;;;;39.63;22.90;;;;;;;;;;4972648;28;20509;-59
2022/01/30 01:24:46;;;;;;;38.70;22.63;;;;;;;;;;5011507;28;20068;-59
2022/01/30 01:27:12;;;;;;;36.23;22.83;;;;;;;;;;5006844;28;20038;-59
2022/01/30 01:29:38;;;;;;;42.43;23.37;;;;;;;;;;5000999;28;20505;-59
2022/01/30 01:32:04;;;;;;;38.77;22.83;;;;;;;;;;5009181;28;20083;-59
2022/01/30 01:34:37;;;;;;;37.20;22.17;;;;;;;;;;4998436;28;20104;-59
2022/01/30 01:37:03;;;;;;;39.50;21.93;;;;;;;;;;4995133;28;20169;-59
2022/01/30 01:39:29;;;;;;;41.00;22.77;;;;;;;;;;5004219;28;20088;-60
2022/01/30 01:41:56;;;;;;;38.17;22.63;;;;;;;;;;5007087;28;20033;-58
2022/01/30 01:44:34;;;;;;;42.80;23.23;;;;;;;;;;5007021;28;20038;-60
2022/01/30 01:47:01;;;;;;;38.97;21.90;;;;;;;;;;5013780;28;20538;-59
2022/01/30 01:49:30;;;;;;;44.03;21.87;;;;;;;;;;5003053;28;20565;-59
2022/01/30 01:52:40;;;;;;;40.57;22.10;;;;;;;;;;5004593;28;20460;-61
2022/01/30 01:54:52;;;;;;;39.27;22.37;;;;;;;;;;5003615;28;20049;-60
2022/01/30 01:57:18;;;;;;;38.27;21.30;;;;;;;;;;5004688;28;20052;-60
2022/01/30 01:59:44;;;;;;;39.47;22.70;;;;;;;;;;5007950;28;20109;-60
2022/01/30 02:02:10;;;;;;;35.07;21.67;;;;;;;;;;5004926;28;20065;-60
2022/01/30 02:04:38;;;;;;;41.87;21.37;;;;;;;;;;5003714;28;20034;-59
2022/01/30 02:09:50;;;;;;;37.57;20.87;;;;;;;;;;5006978;28;20045;-59
2022/01/30 02:12:27;;;;;;;41.47;21.90;;;;;;;;;;4996040;28;20050;-60
2022/01/30 02:26:00;;;;;;;38.80;19.75;;;;;;;;;;5000117;28;20092;-59
2022/01/30 02:28:28;;;;;;;35.17;20.17;;;;;;;;;;5007652;28;20042;-60
2022/01/30 02:31:00;;;;;;;35.43;19.73;;;;;;;;;;4999129;28;20054;-60
2022/01/30 02:33:26;;;;;;;35.23;19.70;;;;;;;;;;5005546;28;20053;-59
2022/01/30 02:35:53;;;;;;;34.80;18.67;;;;;;;;;;5002706;28;20049;-59
2022/01/30 02:38:20;;;;;;;35.67;19.27;;;;;;;;;;5007406;28;20144;-60
2022/01/30 02:40:48;;;;;;;33.37;19.47;;;;;;;;;;5002860;28;20039;-60
2022/01/30 02:43:20;;;;;;;35.13;19.53;;;;;;;;;;5005616;28;20041;-60
2022/01/30 02:46:21;;;;;;;32.53;19.10;;;;;;;;;;5007331;28;20049;-60
2022/01/30 02:48:53;;;;;;;35.00;19.13;;;;;;;;;;4991755;28;20410;-60
2022/01/30 02:51:22;;;;;;;31.57;19.57;;;;;;;;;;5003197;28;20510;-59
2022/01/30 02:54:02;;;;;;;38.00;19.87;;;;;;;;;;5008217;28;20483;-59
2022/01/30 02:56:28;;;;;;;37.63;19.47;;;;;;;;;;5005355;28;20065;-58
2022/01/30 02:58:54;;;;;;;32.63;19.60;;;;;;;;;;5009588;28;20078;-59
2022/01/30 03:01:20;;;;;;;33.03;18.97;;;;;;;;;;5006974;28;20036;-60
2022/01/30 03:03:46;;;;;;;30.73;18.73;;;;;;;;;;5007804;28;20034;-60
2022/01/30 03:06:12;;;;;;;33.60;20.67;;;;;;;;;;5002885;28;20044;-59
2022/01/30 03:08:39;;;;;;;32.33;19.50;;;;;;;;;;4996221;28;20037;-60
2022/01/30 03:11:05;;;;;;;37.43;20.07;;;;;;;;;;5006117;28;20053;-58
2022/01/30 03:13:31;;;;;;;35.20;19.80;;;;;;;;;;5006353;28;20038;-60
2022/01/30 03:16:00;;;;;;;31.57;19.77;;;;;;;;;;5005584;28;20472;-59
2022/01/30 03:18:26;;;;;;;28.50;18.23;;;;;;;;;;5020329;28;20519;-58
2022/01/30 03:21:10;;;;;;;28.43;18.27;;;;;;;;;;5007500;28;20038;-59
2022/01/30 03:23:38;;;;;;;32.33;19.63;;;;;;;;;;4989961;28;20480;-59
2022/01/30 03:26:04;;;;;;;29.40;17.70;;;;;;;;;;4993182;28;20487;-59
2022/01/30 03:28:32;;;;;;;27.57;18.17;;;;;;;;;;5000048;28;20052;-58
2022/01/30 03:31:04;;;;;;;33.37;19.80;;;;;;;;;;5008773;28;20121;-59
2022/01/30 03:33:30;;;;;;;31.93;18.90;;;;;;;;;;5007215;28;20491;-59
2022/01/30 03:35:56;;;;;;;37.67;19.80;;;;;;;;;;4998879;28;20073;-58
2022/01/30 03:38:32;;;;;;;38.17;20.07;;;;;;;;;;5004003;28;20044;-59
2022/01/30 03:41:19;;;;;;;35.80;20.37;;;;;;;;;;5005880;28;20034;-59
2022/01/30 03:43:45;;;;;;;34.93;20.10;;;;;;;;;;4997764;28;20053;-59
2022/01/30 03:46:11;;;;;;;33.20;18.87;;;;;;;;;;5012885;28;20398;-59
2022/01/30 03:48:37;;;;;;;33.00;19.60;;;;;;;;;;5007230;28;20037;-59
2022/01/30 03:51:03;;;;;;;33.87;18.53;;;;;;;;;;4998290;28;20129;-59
2022/01/30 03:53:32;;;;;;;34.93;19.47;;;;;;;;;;5005662;28;20046;-59
2022/01/30 03:55:58;;;;;;;34.90;19.10;;;;;;;;;;5007138;28;20052;-58
2022/01/30 03:58:24;;;;;;;33.87;19.57;;;;;;;;;;5005717;28;20034;-59
2022/01/30 04:00:50;;;;;;;36.17;20.30;;;;;;;;;;5000863;28;20034;-59
2022/01/30 04:03:16;;;;;;;31.33;18.37;;;;;;;;;;5003836;28;20505;-59
2022/01/30 04:05:42;;;;;;;31.60;18.33;;;;;;;;;;4994906;28;20509;-59
2022/01/30 04:08:08;;;;;;;37.67;20.47;;;;;;;;;;5007120;28;20438;-59
2022/01/30 04:10:34;;;;;;;33.47;19.13;;;;;;;;;;5020568;28;20070;-59
2022/01/30 04:13:00;;;;;;;37.10;18.30;;;;;;;;;;5005554;28;20474;-58
2022/01/30 04:15:26;;;;;;;36.80;20.57;;;;;;;;;;5011100;28;20049;-58
2022/01/30 04:17:53;;;;;;;34.40;18.97;;;;;;;;;;5014442;28;20042;-59
2022/01/30 04:20:19;;;;;;;36.40;20.33;;;;;;;;;;4997276;28;20382;-59
2022/01/30 04:22:45;;;;;;;37.20;20.03;;;;;;;;;;5010941;28;20394;-59
2022/01/30 04:25:11;;;;;;;37.77;20.33;;;;;;;;;;5010966;28;20049;-59
2022/01/30 04:27:37;;;;;;;37.07;19.37;;;;;;;;;;5009894;28;20038;-60
2022/01/30 04:30:04;;;;;;;38.07;19.60;;;;;;;;;;5008894;28;20034;-59
2022/01/30 04:32:33;;;;;;;40.37;21.80;;;;;;;;;;4996690;28;20038;-58
2022/01/30 04:35:00;;;;;;;37.10;19.40;;;;;;;;;;5009119;28;20050;-59
2022/01/30 04:59:18;;;;;;;33.90;21.40;;;;;;;;;;5009470;28;20050;-60
2022/01/30 05:09:27;;;;;;;36.40;19.05;;;;;;;;;;5005244;28;20468;-59
2022/01/30 05:11:54;;;;;;;35.77;20.77;;;;;;;;;;5009349;28;20165;-60
2022/01/30 05:14:23;;;;;;;34.63;18.93;;;;;;;;;;4997912;28;20077;-61
2022/01/30 05:16:49;;;;;;;35.80;19.23;;;;;;;;;;5001252;28;20495;-61
2022/01/30 05:19:15;;;;;;;33.17;17.47;;;;;;;;;;5001976;28;20458;-60
2022/01/30 05:21:41;;;;;;;35.50;19.03;;;;;;;;;;4994362;28;20068;-60
2022/01/30 05:24:08;;;;;;;32.13;19.00;;;;;;;;;;5023051;28;20042;-60
2022/01/30 05:26:39;;;;;;;31.50;18.33;;;;;;;;;;5009480;28;20044;-59
2022/01/30 05:29:05;;;;;;;34.13;19.87;;;;;;;;;;5003393;28;20030;-59
2022/01/30 05:31:31;;;;;;;35.77;19.23;;;;;;;;;;5008725;28;20033;-59
2022/01/30 05:33:57;;;;;;;33.33;18.83;;;;;;;;;;5010226;28;20038;-59
2022/01/30 05:36:24;;;;;;;35.77;19.10;;;;;;;;;;5006583;28;20049;-59
2022/01/30 05:38:50;;;;;;;32.53;18.77;;;;;;;;;;5009664;28;20038;-59
2022/01/30 05:41:17;;;;;;;36.63;18.77;;;;;;;;;;5006957;28;20061;-59
2022/01/30 05:43:43;;;;;;;35.23;19.50;;;;;;;;;;5008095;28;20048;-59
2022/01/30 05:46:17;;;;;;;34.40;18.53;;;;;;;;;;5008704;28;20072;-59
2022/01/30 05:48:43;;;;;;;35.90;19.73;;;;;;;;;;5007326;28;20460;-60
2022/01/30 05:51:09;;;;;;;33.23;19.30;;;;;;;;;;5006757;28;20044;-60
2022/01/30 05:53:35;;;;;;;32.33;18.67;;;;;;;;;;5008566;28;20121;-60
2022/01/30 05:59:05;;;;;;;38.10;19.63;;;;;;;;;;4995154;28;20069;-60
2022/01/30 06:01:31;;;;;;;38.40;19.27;;;;;;;;;;5017492;28;20184;-59
2022/01/30 06:03:57;;;;;;;34.60;19.33;;;;;;;;;;5004655;28;20080;-58
2022/01/30 06:06:23;;;;;;;33.77;19.97;;;;;;;;;;5007846;28;20041;-61
2022/01/30 06:11:24;;;;;;;31.70;18.87;;;;;;;;;;5008699;28;20049;-59
2022/01/30 06:14:03;;;;;;;33.60;18.90;;;;;;;;;;5008078;28;20034;-59
2022/01/30 06:16:29;;;;;;;34.93;19.60;;;;;;;;;;5001364;28;20061;-58
2022/01/30 06:18:54;;;;;;;36.27;19.10;;;;;;;;;;5009388;28;20041;-60
2022/01/30 06:21:20;;;;;;;31.27;17.97;;;;;;;;;;4993957;28;20035;-60
2022/01/30 06:23:46;;;;;;;35.87;18.53;;;;;;;;;;5006373;28;20041;-60
2022/01/30 06:26:12;;;;;;;31.50;18.27;;;;;;;;;;5005918;28;20030;-60
2022/01/30 06:28:38;;;;;;;31.67;18.73;;;;;;;;;;5001854;28;20129;-60
2022/01/30 06:31:04;;;;;;;31.67;19.03;;;;;;;;;;5008381;28;20049;-60
2022/01/30 06:33:30;;;;;;;30.90;18.50;;;;;;;;;;5008999;28;20042;-60
2022/01/30 06:35:56;;;;;;;32.80;18.37;;;;;;;;;;5003877;28;20062;-59
2022/01/30 06:38:22;;;;;;;33.03;18.80;;;;;;;;;;5011220;28;20072;-60
2022/01/30 06:40:48;;;;;;;28.33;18.00;;;;;;;;;;5008152;28;20088;-60
2022/01/30 06:43:14;;;;;;;30.67;18.37;;;;;;;;;;5006526;28;20403;-60
2022/01/30 06:45:42;;;;;;;30.63;18.30;;;;;;;;;;5003978;28;20537;-61
2022/01/30 06:48:09;;;;;;;31.70;18.10;;;;;;;;;;5007836;28;20380;-60
2022/01/30 06:50:35;;;;;;;26.97;17.17;;;;;;;;;;4997412;28;20046;-60
2022/01/30 06:53:02;;;;;;;30.47;17.17;;;;;;;;;;4995122;28;20072;-59
2022/01/30 06:55:28;;;;;;;29.13;15.67;;;;;;;;;;4995804;28;20188;-59
2022/01/30 06:57:54;;;;;;;32.90;17.70;;;;;;;;;;5015027;28;20515;-60
2022/01/30 07:00:20;;;;;;;30.60;18.03;;;;;;;;;;5019254;28;20038;-60
2022/01/30 07:02:46;;;;;;;31.57;17.90;;;;;;;;;;5007960;28;20398;-60
2022/01/30 07:05:12;;;;;;;25.27;16.03;;;;;;;;;;5003305;28;20046;-60
2022/01/30 07:07:38;;;;;;;28.90;16.80;;;;;;;;;;5006917;28;20077;-60
2022/01/30 07:10:07;;;;;;;25.40;16.50;;;;;;;;;;5008122;28;20029;-60
2022/01/30 07:12:33;;;;;;;29.87;16.63;;;;;;;;;;5007901;28;20038;-60
2022/01/30 07:14:59;;;;;;;28.10;15.90;;;;;;;;;;5007058;28;20078;-59
2022/01/30 07:17:25;;;;;;;30.07;16.43;;;;;;;;;;5008385;28;20069;-59
2022/01/30 07:19:52;;;;;;;25.17;15.17;;;;;;;;;;5006530;28;20054;-59
2022/01/30 07:22:18;;;;;;;26.17;16.17;;;;;;;;;;5006141;28;20073;-59
2022/01/30 07:24:44;;;;;;;26.07;15.67;;;;;;;;;;5009441;28;20042;-59
2022/01/30 07:27:10;;;;;;;24.83;15.50;;;;;;;;;;5003930;28;20510;-59
2022/01/30 07:29:36;;;;;;;24.97;15.87;;;;;;;;;;5013078;28;20045;-59
2022/01/30 07:32:02;;;;;;;23.53;15.27;;;;;;;;;;5009573;28;20030;-58
2022/01/30 07:34:28;;;;;;;28.53;16.23;;;;;;;;;;5004850;28;20040;-58
2022/01/30 07:36:57;;;;;;;28.23;15.23;;;;;;;;;;5007917;28;20054;-59
2022/01/30 07:39:27;;;;;;;25.37;16.07;;;;;;;;;;5008618;28;20088;-59
2022/01/30 07:41:53;;;;;;;26.93;15.27;;;;;;;;;;5007899;28;20053;-59
2022/01/30 07:44:19;;;;;;;27.17;15.27;;;;;;;;;;5010333;28;20072;-60
2022/01/30 07:46:45;;;;;;;24.83;14.87;;;;;;;;;;5009264;28;20034;-60
2022/01/30 07:49:11;;;;;;;24.13;14.47;;;;;;;;;;5004978;28;20042;-59
2022/01/30 07:51:37;;;;;;;23.00;14.87;;;;;;;;;;5004203;28;20050;-59
2022/01/30 07:54:03;;;;;;;25.47;15.00;;;;;;;;;;5009395;28;20072;-60
2022/01/30 07:56:29;;;;;;;25.13;15.13;;;;;;;;;;5000161;28;20081;-60
2022/01/30 07:58:55;;;;;;;22.30;14.67;;;;;;;;;;5004797;28;20107;-59
2022/01/30 08:01:21;;;;;;;29.50;15.77;;;;;;;;;;5008583;28;20030;-60
2022/01/30 08:03:47;;;;;;;23.80;15.00;;;;;;;;;;5005136;28;20039;-60
2022/01/30 08:06:13;;;;;;;24.57;14.77;;;;;;;;;;5011523;28;20026;-60
2022/01/30 08:08:39;;;;;;;23.47;14.33;;;;;;;;;;5011152;28;20049;-60
2022/01/30 08:11:08;;;;;;;22.37;15.27;;;;;;;;;;5010666;28;20030;-59
2022/01/30 08:13:34;;;;;;;22.77;14.40;;;;;;;;;;5012213;28;20034;-58
2022/01/30 08:16:00;;;;;;;22.20;14.10;;;;;;;;;;5011507;28;20042;-60
2022/01/30 08:18:26;;;;;;;24.97;14.10;;;;;;;;;;5010326;28;20049;-60
2022/01/30 08:20:54;;;;;;;22.00;14.37;;;;;;;;;;5007316;28;20531;-60
2022/01/30 08:23:22;;;;;;;21.37;14.20;;;;;;;;;;5004254;28;20095;-60
2022/01/30 08:25:48;;;;;;;22.23;13.67;;;;;;;;;;5009281;28;20368;-60
2022/01/30 08:28:14;;;;;;;20.73;13.10;;;;;;;;;;5013093;28;20042;-60
2022/01/30 08:30:41;;;;;;;22.77;13.90;;;;;;;;;;5018400;28;20143;-60
2022/01/30 08:33:07;;;;;;;19.80;12.87;;;;;;;;;;5009444;28;20053;-60
2022/01/30 08:35:33;;;;;;;21.40;14.13;;;;;;;;;;5001448;28;20108;-60
2022/01/30 08:37:59;;;;;;;19.30;12.80;;;;;;;;;;5009432;28;20108;-58
2022/01/30 08:40:26;;;;;;;22.90;14.80;;;;;;;;;;5009170;28;20384;-59
2022/01/30 08:42:52;;;;;;;20.77;13.00;;;;;;;;;;5009067;28;20026;-61
2022/01/30 08:45:19;;;;;;;21.03;13.20;;;;;;;;;;5007953;28;20038;-59
2022/01/30 08:47:46;;;;;;;19.93;13.00;;;;;;;;;;5007303;28;20462;-59
2022/01/30 08:50:13;;;;;;;20.37;12.73;;;;;;;;;;5008850;28;20038;-60
2022/01/30 08:52:39;;;;;;;20.20;12.77;;;;;;;;;;5006836;28;20045;-60
2022/01/30 08:55:06;;;;;;;19.80;13.03;;;;;;;;;;5010091;28;20030;-60
2022/01/30 08:57:32;;;;;;;19.33;12.20;;;;;;;;;;4996411;28;20057;-59
2022/01/30 08:59:58;;;;;;;20.10;11.87;;;;;;;;;;4992332;28;20074;-60
2022/01/30 09:02:25;;;;;;;17.70;11.70;;;;;;;;;;5005482;28;20049;-60
2022/01/30 09:04:51;;;;;;;18.47;12.17;;;;;;;;;;5007654;28;20046;-59
2022/01/30 09:07:17;;;;;;;20.00;13.00;;;;;;;;;;5008970;28;20108;-59
2022/01/30 09:09:43;;;;;;;15.87;10.70;;;;;;;;;;5010227;28;20105;-59
2022/01/30 09:12:10;;;;;;;16.23;11.47;;;;;;;;;;5002564;28;20038;-59
2022/01/30 09:14:39;;;;;;;16.30;11.13;;;;;;;;;;5008108;28;20042;-59
2022/01/30 09:17:12;;;;;;;15.33;10.23;;;;;;;;;;5007367;28;20046;-59
2022/01/30 09:19:38;;;;;;;16.43;10.27;;;;;;;;;;5012216;28;20100;-59
2022/01/30 09:22:04;;;;;;;16.87;10.10;;;;;;;;;;5004436;28;20044;-59
2022/01/30 09:24:31;;;;;;;14.87;10.80;;;;;;;;;;5005495;28;20046;-59
2022/01/30 09:26:57;;;;;;;17.33;10.40;;;;;;;;;;5009515;28;20038;-59
2022/01/30 09:29:23;;;;;;;16.20;9.53;;;;;;;;;;5007912;28;20100;-60
2022/01/30 09:31:50;;;;;;;16.00;10.70;;;;;;;;;;5007213;28;20041;-60
2022/01/30 09:34:16;;;;;;;17.20;10.57;;;;;;;;;;5006482;28;20463;-60
2022/01/30 09:36:42;;;;;;;17.87;10.90;;;;;;;;;;5006045;28;20088;-60
2022/01/30 09:39:08;;;;;;;18.47;11.00;;;;;;;;;;5008930;28;20062;-60
2022/01/30 09:41:34;;;;;;;17.47;11.10;;;;;;;;;;5004656;28;20128;-60
2022/01/30 09:44:01;;;;;;;16.83;10.53;;;;;;;;;;5008139;28;20045;-59
2022/01/30 09:46:32;;;;;;;18.50;10.07;;;;;;;;;;4995264;28;20069;-58
2022/01/30 09:48:59;;;;;;;16.97;10.77;;;;;;;;;;5002518;28;20041;-59
2022/01/30 09:51:25;;;;;;;15.90;10.97;;;;;;;;;;5009646;28;20050;-60
2022/01/30 09:53:51;;;;;;;17.17;11.10;;;;;;;;;;5004546;28;20088;-60
2022/01/30 09:56:19;;;;;;;12.50;9.57;;;;;;;;;;5006244;28;20057;-60
2022/01/30 09:58:46;;;;;;;14.43;10.13;;;;;;;;;;4995139;28;20053;-60
2022/01/30 10:01:12;;;;;;;13.53;10.50;;;;;;;;;;5007726;28;20046;-60
2022/01/30 10:03:38;;;;;;;16.55;9.95;;;;;;;;;;5007388;28;20069;-59
2022/01/30 10:06:14;;;;;;;16.30;9.80;;;;;;;;;;5004871;28;20061;-59
2022/01/30 10:08:46;;;;;;;13.77;9.77;;;;;;;;;;5014387;28;20400;-59
2022/01/30 10:14:02;;;;;;;16.55;10.52;;;;;;;;;;5003501;28;20041;-59
2022/01/30 10:16:28;;;;;;;18.07;10.70;;;;;;;;;;5002086;28;20053;-58
2022/01/30 10:18:54;;;;;;;15.70;9.93;;;;;;;;;;5017134;28;20034;-59
2022/01/30 10:21:20;;;;;;;16.42;9.77;;;;;;;;;;5007294;28;20041;-59
2022/01/30 10:23:47;;;;;;;15.82;8.93;;;;;;;;;;5003958;28;20121;-59
2022/01/30 10:26:18;;;;;;;14.23;8.63;;;;;;;;;;5004758;28;20042;-59
2022/01/30 10:28:44;;;;;;;11.90;8.95;;;;;;;;;;5004950;28;20033;-59
2022/01/30 10:31:11;;;;;;;12.37;9.23;;;;;;;;;;5008612;28;20132;-59
2022/01/30 10:33:47;;;;;;;19.17;9.23;;;;;;;;;;5005547;28;20030;-60
2022/01/30 10:36:21;;;;;;;16.55;9.27;;;;;;;;;;5000141;28;20611;-59
2022/01/30 10:38:58;;;;;;;18.38;9.93;;;;;;;;;;5004677;28;20084;-59
2022/01/30 10:41:34;;;;;;;13.02;9.55;;;;;;;;;;5017308;28;20030;-58
2022/01/30 10:44:05;;;;;;;14.05;9.80;;;;;;;;;;5004448;28;20394;-59
2022/01/30 10:46:32;;;;;;;14.57;8.95;;;;;;;;;;5007173;28;20050;-58
2022/01/30 10:48:59;;;;;;;14.30;9.35;;;;;;;;;;5007214;28;20136;-58
2022/01/30 10:51:26;;;;;;;13.23;9.65;;;;;;;;;;5016787;28;20116;-59
2022/01/30 10:53:52;;;;;;;14.95;9.15;;;;;;;;;;5005163;28;20038;-60
2022/01/30 10:56:19;;;;;;;11.60;9.32;;;;;;;;;;5006760;28;20061;-59
2022/01/30 10:59:04;;;;;;;12.60;8.50;;;;;;;;;;5008202;28;20030;-61
2022/01/30 11:01:30;;;;;;;13.00;8.35;;;;;;;;;;5006363;28;20095;-59
2022/01/30 11:04:00;;;;;;;12.13;8.10;;;;;;;;;;5009067;28;20041;-59
2022/01/30 11:06:27;;;;;;;12.05;7.85;;;;;;;;;;5007421;28;20036;-60
2022/01/30 11:08:54;;;;;;;11.30;7.50;;;;;;;;;;5008210;28;20040;-60
2022/01/30 11:11:33;;;;;;;13.25;7.82;;;;;;;;;;5006980;28;20042;-59
2022/01/30 11:19:10;;;;;;;;;;;;;;;;;;5006894;28;20438;-60
2022/01/30 11:21:38;;;;;;;12.77;8.10;;;;;;;;;;5004709;28;20374;-60
2022/01/30 11:24:04;;;;;;;10.25;7.45;;;;;;;;;;5007536;28;20038;-60
2022/01/30 11:26:31;;;;;;;12.80;8.63;;;;;;;;;;5006464;28;20521;-51
2022/01/30 11:28:57;;;;;;;11.75;8.23;;;;;;;;;;5008858;28;20037;-55
2022/01/30 11:31:23;;;;;;;13.75;8.75;;;;;;;;;;5007372;28;20117;-60
2022/01/30 11:33:52;;;;;;;12.63;8.55;;;;;;;;;;5006036;28;20498;-60
2022/01/30 11:36:19;;;;;;;11.98;9.38;;;;;;;;;;5006233;28;20133;-60
2022/01/30 11:38:45;;;;;;;15.23;8.93;;;;;;;;;;5006551;28;20038;-60
2022/01/30 11:41:12;;;;;;;15.88;9.77;;;;;;;;;;5005256;28;20068;-60
2022/01/30 11:43:38;;;;;;;13.75;9.55;;;;;;;;;;5007181;28;20092;-60
2022/01/30 11:46:15;;;;;;;15.27;9.20;;;;;;;;;;5007365;28;20439;-60
2022/01/30 11:48:41;;;;;;;12.90;9.35;;;;;;;;;;5006911;28;20046;-60
2022/01/30 11:51:07;;;;;;;14.90;9.15;;;;;;;;;;5007752;28;20029;-60
2022/01/30 11:53:33;;;;;;;14.18;9.57;;;;;;;;;;5006548;28;20034;-60
2022/01/30 11:56:01;;;;;;;16.48;9.05;;;;;;;;;;5007202;28;20048;-60
2022/01/30 11:58:33;;;;;;;14.18;9.48;;;;;;;;;;5006577;28;20542;-59
2022/01/30 12:01:00;;;;;;;11.38;8.20;;;;;;;;;;5007698;28;20070;-60
2022/01/30 12:03:27;;;;;;;15.27;9.38;;;;;;;;;;5006740;28;20120;-61
2022/01/30 12:12:03;;;;;;;12.38;8.52;;;;;;;;;;4997606;28;20045;-61
2022/01/30 12:14:43;;;;;;;12.45;9.02;;;;;;;;;;5001737;28;20046;-59
2022/01/30 12:17:09;;;;;;;17.15;9.95;;;;;;;;;;5005602;28;20054;-60
2022/01/30 12:19:42;;;;;;;13.90;9.38;;;;;;;;;;5007237;28;20518;-60
2022/01/30 12:22:18;;;;;;;12.82;8.77;;;;;;;;;;5004936;28;20041;-60
2022/01/30 12:24:54;;;;;;;10.98;8.95;;;;;;;;;;5011631;28;20045;-60
2022/01/30 12:27:20;;;;;;;14.85;9.57;;;;;;;;;;5009198;28;20045;-60
2022/01/30 12:29:47;;;;;;;14.82;9.25;;;;;;;;;;5011824;28;20095;-60
2022/01/30 12:32:22;;;;;;;14.38;9.45;;;;;;;;;;5010143;28;20061;-59
2022/01/30 12:34:57;;;;;;;13.40;9.45;;;;;;;;;;5010704;28;20038;-60
2022/01/30 12:37:28;;;;;;;15.00;9.02;;;;;;;;;;5008077;28;20058;-60
2022/01/30 12:39:55;;;;;;;13.15;9.98;;;;;;;;;;5009755;28;20041;-60
2022/01/30 12:42:22;;;;;;;12.52;9.60;;;;;;;;;;5010327;28;20481;-60
2022/01/30 12:44:48;;;;;;;12.65;8.43;;;;;;;;;;5009881;28;20046;-60
2022/01/30 12:47:15;;;;;;;11.13;8.00;;;;;;;;;;5007951;28;20089;-60
2022/01/30 12:49:51;;;;;;;10.98;7.93;;;;;;;;;;5010607;28;20113;-60
2022/01/30 12:52:35;;;;;;;12.43;7.97;;;;;;;;;;5009127;28;20041;-60
2022/01/30 12:55:08;;;;;;;13.43;8.57;;;;;;;;;;4994843;28;20031;-59
2022/01/30 12:57:35;;;;;;;11.30;7.82;;;;;;;;;;5008905;28;20069;-60
2022/01/30 13:00:01;;;;;;;13.43;8.55;;;;;;;;;;5010672;28;20038;-59
2022/01/30 13:02:33;;;;;;;13.32;8.73;;;;;;;;;;5002293;28;20661;-59
2022/01/30 13:08:03;;;;;;;12.43;8.38;;;;;;;;;;4997807;28;20387;-59
2022/01/30 13:10:29;;;;;;;13.60;8.65;;;;;;;;;;5003437;28;20058;-60
2022/01/30 13:12:57;;;;;;;14.20;9.13;;;;;;;;;;5009019;28;20104;-59
2022/01/30 13:15:24;;;;;;;10.48;8.40;;;;;;;;;;5013225;28;20465;-60
2022/01/30 13:17:50;;;;;;;13.07;8.50;;;;;;;;;;5018399;28;20041;-60
2022/01/30 13:20:21;;;;;;;13.88;8.52;;;;;;;;;;5008168;28;20046;-61
2022/01/30 13:22:46;;;;;;;12.98;8.43;;;;;;;;;;5000253;28;20117;-61
2022/01/30 13:25:17;;;;;;;11.48;8.23;;;;;;;;;;5009233;28;20105;-60
2022/01/30 13:27:48;;;;;;;10.32;7.55;;;;;;;;;;4994836;28;20077;-60
2022/01/30 13:30:24;;;;;;;13.80;9.15;;;;;;;;;;5002450;28;20395;-60
2022/01/30 13:32:51;;;;;;;12.65;8.43;;;;;;;;;;5008846;28;20145;-60
2022/01/30 13:35:18;;;;;;;10.45;8.48;;;;;;;;;;5006461;28;20396;-60
2022/01/30 13:37:45;;;;;;;11.10;7.95;;;;;;;;;;5003199;28;20092;-60
2022/01/30 13:40:19;;;;;;;12.45;9.13;;;;;;;;;;4997399;28;20065;-60
2022/01/30 13:42:53;;;;;;;15.45;9.23;;;;;;;;;;5008280;28;20042;-61
2022/01/30 13:48:00;;;;;;;13.13;7.70;;;;;;;;;;5009444;28;20057;-61
2022/01/30 13:50:27;;;;;;;9.38;7.32;;;;;;;;;;5009089;28;20491;-61
2022/01/30 13:53:00;;;;;;;10.95;7.43;;;;;;;;;;5008543;28;20045;-61
2022/01/30 13:55:26;;;;;;;14.07;7.65;;;;;;;;;;5008335;28;20061;-61
2022/01/30 13:57:56;;;;;;;10.60;7.35;;;;;;;;;;5007881;28;20037;-61
2022/01/30 14:00:22;;;;;;;13.52;7.60;;;;;;;;;;5009258;28;20045;-61
2022/01/30 14:02:54;;;;;;;9.77;6.95;;;;;;;;;;5009430;28;20377;-61
2022/01/30 14:05:26;;;;;;;12.20;7.22;;;;;;;;;;4998182;28;20034;-60
2022/01/30 14:07:56;;;;;;;13.52;7.60;;;;;;;;;;5007671;28;20488;-60
2022/01/30 14:10:23;;;;;;;10.40;7.80;;;;;;;;;;5009127;28;20125;-60
2022/01/30 14:12:50;;;;;;;14.23;7.60;;;;;;;;;;5006750;28;20494;-61
2022/01/30 14:15:19;;;;;;;10.85;8.00;;;;;;;;;;5009500;28;20034;-61
2022/01/30 14:17:45;;;;;;;9.48;7.25;;;;;;;;;;5007877;28;20034;-61
2022/01/30 14:20:13;;;;;;;12.40;8.32;;;;;;;;;;5008662;28;20045;-60
2022/01/30 14:22:39;;;;;;;11.18;7.88;;;;;;;;;;5006548;28;20029;-60
2022/01/30 14:25:07;;;;;;;11.82;7.82;;;;;;;;;;5007750;28;20045;-60
2022/01/30 14:27:37;;;;;;;11.52;7.10;;;;;;;;;;5006959;28;20048;-61
2022/01/30 14:30:05;;;;;;;9.90;6.70;;;;;;;;;;5020979;28;20550;-61
2022/01/30 14:32:33;;;;;;;12.27;7.55;;;;;;;;;;5005365;28;20034;-59
2022/01/30 14:35:00;;;;;;;12.32;7.75;;;;;;;;;;5007448;28;20034;-59
2022/01/30 14:37:26;;;;;;;10.07;7.28;;;;;;;;;;5000396;28;20400;-60
2022/01/30 14:39:57;;;;;;;9.55;6.32;;;;;;;;;;5009119;28;20152;-59
2022/01/30 14:42:23;;;;;;;12.05;6.55;;;;;;;;;;5007460;28;20037;-60
2022/01/30 14:44:49;;;;;;;13.00;7.15;;;;;;;;;;5023517;28;20038;-61
2022/01/30 14:47:16;;;;;;;10.95;7.07;;;;;;;;;;5006037;28;20033;-60
2022/01/30 14:49:43;;;;;;;11.02;7.18;;;;;;;;;;5008733;28;20042;-61
2022/01/30 14:52:09;;;;;;;11.02;6.57;;;;;;;;;;5005995;28;20097;-61
2022/01/30 14:54:35;;;;;;;10.73;7.10;;;;;;;;;;5006999;28;20442;-60
2022/01/30 14:57:03;;;;;;;8.48;6.40;;;;;;;;;;4999758;28;20076;-59
2022/01/30 14:59:29;;;;;;;20.45;7.47;;;;;;;;;;5007456;28;20042;-57
2022/01/30 15:01:55;;;;;;;10.98;7.18;;;;;;;;;;5003932;28;20727;-60
2022/01/30 15:04:21;;;;;;;10.23;6.50;;;;;;;;;;5005750;28;20045;-60
2022/01/30 15:06:47;;;;;;;10.93;7.15;;;;;;;;;;5004538;28;20070;-60
2022/01/30 15:09:13;;;;;;;10.75;6.60;;;;;;;;;;5007574;28;20049;-60
2022/01/30 15:11:39;;;;;;;12.50;7.78;;;;;;;;;;5004482;28;20080;-60
2022/01/30 15:14:06;;;;;;;10.65;7.57;;;;;;;;;;5000292;28;20021;-60
2022/01/30 15:17:07;;;;;;;9.48;7.07;;;;;;;;;;5005986;28;20125;-59
2022/01/30 15:19:26;;;;;;;10.25;7.25;;;;;;;;;;4990684;28;20046;-60
2022/01/30 15:21:52;;;;;;;9.45;7.03;;;;;;;;;;5015389;28;20038;-60
2022/01/30 15:24:19;;;;;;;9.70;6.78;;;;;;;;;;5004162;28;20521;-61
2022/01/30 15:26:45;;;;;;;10.70;6.53;;;;;;;;;;4998720;28;20120;-61
2022/01/30 15:29:11;;;;;;;10.95;7.00;;;;;;;;;;5005554;28;20161;-61
2022/01/30 15:31:38;;;;;;;9.25;7.00;;;;;;;;;;5001392;28;20038;-60
2022/01/30 15:34:04;;;;;;;9.50;6.82;;;;;;;;;;5005809;28;20483;-61
2022/01/30 15:36:30;;;;;;;9.13;7.03;;;;;;;;;;5003417;28;20057;-60
2022/01/30 15:38:56;;;;;;;10.65;7.00;;;;;;;;;;5002382;28;20045;-60
2022/01/30 15:41:23;;;;;;;11.13;6.95;;;;;;;;;;5003329;28;20038;-60
2022/01/30 15:43:51;;;;;;;16.70;7.07;;;;;;;;;;4993942;28;20096;-60
2022/01/30 15:49:10;;;;;;;11.98;7.22;;;;;;;;;;5001405;28;20172;-60
2022/01/30 15:51:40;;;;;;;12.82;7.47;;;;;;;;;;5002568;28;20038;-61
2022/01/30 15:54:07;;;;;;;10.88;6.80;;;;;;;;;;4998300;28;20030;-61
2022/01/30 15:56:33;;;;;;;14.25;7.72;;;;;;;;;;5003533;28;20419;-61